NCAR-RAP Real-Time Weather Data

Output produced by METARs form (12 May 2021  11:58 UTC)
found at http://weather.rap.ucar.edu/surface/
 
KGPI 121155Z AUTO 29003KT 8SM CLR M01/M02 A3022 RMK AO2 SLP248 70001 I6001 T10061017 10039 21011 52005
KGPI 121055Z AUTO 29003KT 9SM CLR 01/00 A3022 RMK AO2 SLP243 I1001 T00110000
KGPI 120955Z AUTO 29003KT 10SM CLR 01/00 A3021 RMK AO2 SLP241 T00110000
KGPI 120855Z AUTO 00000KT 10SM CLR 02/01 A3020 RMK AO2 SLP242 T00170006 58000
KGPI 120755Z AUTO 33003KT 10SM CLR 02/01 A3021 RMK AO2 SLP239 T00220011
KGPI 120655Z AUTO 00000KT 10SM CLR 03/02 A3022 RMK AO2 SLP240 T00330017 401501022
KGPI 120555Z 00000KT 10SM CLR 04/02 A3021 RMK AO2 SLP240 60000 T00390022 10122 20039 50007
KGPI 120455Z 35004KT 10SM FEW110 07/03 A3021 RMK AO2 SLP239 T00720033
KGPI 120355Z 06004KT 10SM SCT050 OVC100 09/05 A3020 RMK AO2 RAB29E54 SLP235 P0000 T00890050
KGPI 120255Z 23003KT 10SM SCT075 08/04 A3018 RMK AO2 SLP232 60000 T00830039 51005
KGPI 120155Z 17008KT 10SM CLR 11/04 A3018 RMK AO2 RAE05 SLP229 P0000 T01110039
KGPI 120055Z 18006KT 10SM -RA BKN050 OVC065 11/04 A3018 RMK AO2 RAB36 SLP231 P0000 T01110044
KGPI 112355Z 19011KT 10SM FEW080 SCT095 12/03 A3017 RMK AO2 SLP230 60001 T01220028 10150 20106 55001